Time;durP1;ratioP1;P1;durP2;ratioP2;P2;SDS_P1;SDS_P2;PMS_P1;PMS_P2;Temp;Humidity;BMP_temperature;BMP_pressure;BME280_temperature;BME280_humidity;BME280_pressure;Samples;Min_cycle;Max_cycle;Signal;HPM_P1;HPM_P2
2021/10/11 00:00:42;;;;;;;124.10;91.90;;;;;;;2.09;86.83;99759.66;112945;1188;60265;-81
2021/10/11 00:03:16;;;;;;;119.30;89.00;;;;;;;2.05;86.79;99763.43;112910;1190;60297;-82
2021/10/11 00:05:43;;;;;;;112.10;83.80;;;;;;;1.95;86.67;99768.71;112914;1189;65956;-82
2021/10/11 00:08:09;;;;;;;113.60;85.30;;;;;;;1.90;86.72;99771.06;112921;1189;60118;-80
2021/10/11 00:10:36;;;;;;;118.90;91.40;;;;;;;1.87;86.80;99774.80;112958;1189;62740;-81
2021/10/11 00:13:03;;;;;;;115.20;89.60;;;;;;;1.88;86.95;99780.04;112886;1189;60690;-82
2021/10/11 00:15:30;;;;;;;125.80;94.80;;;;;;;1.85;86.82;99780.81;112989;1190;60239;-84
2021/10/11 00:17:57;;;;;;;129.30;93.50;;;;;;;1.80;86.87;99781.96;112922;1189;65978;-83
2021/10/11 00:20:24;;;;;;;136.80;100.60;;;;;;;1.80;87.07;99775.48;112815;1190;60758;-83
2021/10/11 00:22:51;;;;;;;144.00;104.80;;;;;;;1.79;87.13;99769.02;112929;1189;65189;-82
2021/10/11 00:25:18;;;;;;;136.70;101.90;;;;;;;1.81;87.37;99767.03;112975;1189;60617;-83
2021/10/11 00:27:44;;;;;;;128.50;94.00;;;;;;;1.86;87.47;99761.52;112967;1189;60207;-82
2021/10/11 00:30:12;;;;;;;119.60;91.40;;;;;;;1.84;87.47;99756.63;112897;1189;63828;-82
2021/10/11 00:32:39;;;;;;;142.20;100.70;;;;;;;1.83;87.45;99753.33;112845;1190;59399;-82
2021/10/11 00:35:06;;;;;;;124.80;93.00;;;;;;;1.79;87.55;99748.16;112903;1190;65309;-82
2021/10/11 00:37:33;;;;;;;148.00;103.80;;;;;;;1.76;87.65;99751.02;112872;1189;60210;-81
2021/10/11 00:39:59;;;;;;;160.20;111.20;;;;;;;1.79;87.89;99751.84;112895;1189;60229;-82
2021/10/11 00:42:26;;;;;;;173.20;118.80;;;;;;;1.84;88.15;99750.68;112794;1188;65098;-83
2021/10/11 00:44:53;;;;;;;193.50;123.10;;;;;;;1.86;88.33;99751.71;112954;1189;60188;-83
2021/10/11 00:47:19;;;;;;;190.20;122.40;;;;;;;1.88;88.47;99745.17;112917;1189;64715;-82
2021/10/11 00:49:46;;;;;;;191.20;127.60;;;;;;;1.91;88.71;99733.90;112955;1189;60249;-82
2021/10/11 00:52:13;;;;;;;178.40;124.30;;;;;;;1.96;88.96;99727.68;112946;1189;60245;-81
2021/10/11 00:54:39;;;;;;;191.50;130.00;;;;;;;2.01;89.04;99728.62;112961;1189;63797;-83
2021/10/11 00:57:06;;;;;;;183.20;125.70;;;;;;;2.07;89.04;99727.82;112891;1189;60201;-82
2021/10/11 00:59:33;;;;;;;170.00;118.70;;;;;;;2.09;89.13;99726.87;112742;1190;63867;-81
2021/10/11 01:01:59;;;;;;;153.40;111.80;;;;;;;2.10;89.06;99728.79;112886;1189;60091;-83
2021/10/11 01:04:26;;;;;;;160.20;113.00;;;;;;;2.08;89.03;99728.65;113106;1189;60168;-82
2021/10/11 01:06:52;;;;;;;170.80;117.20;;;;;;;2.04;89.00;99723.99;113822;1190;64824;-82
2021/10/11 01:09:19;;;;;;;179.10;119.90;;;;;;;2.00;89.03;99719.89;113481;1189;60178;-81
2021/10/11 01:11:50;;;;;;;200.30;127.90;;;;;;;1.97;89.20;99717.83;113375;1189;65072;-81
2021/10/11 01:14:18;;;;;;;187.00;122.80;;;;;;;2.01;89.35;99717.75;112939;1190;60222;-82
2021/10/11 01:16:46;;;;;;;190.40;123.80;;;;;;;2.01;89.30;99712.32;112904;1189;60242;-85
2021/10/11 01:19:13;;;;;;;163.40;113.80;;;;;;;1.96;89.22;99710.50;112843;1189;63838;-83
2021/10/11 01:21:39;;;;;;;162.00;113.20;;;;;;;1.89;89.16;99708.89;112876;1189;60129;-82
2021/10/11 01:24:06;;;;;;;160.90;109.30;;;;;;;1.81;89.19;99709.21;112870;1189;62673;-82
2021/10/11 01:26:39;;;;;;;160.60;111.70;;;;;;;1.75;89.21;99709.86;112913;1189;60235;-82
2021/10/11 01:29:08;;;;;;;162.40;110.30;;;;;;;1.74;89.40;99711.96;112789;1189;60219;-82
2021/10/11 01:31:36;;;;;;;171.20;109.70;;;;;;;1.75;89.54;99709.52;112868;1190;66114;-82
2021/10/11 01:34:03;;;;;;;161.20;108.60;;;;;;;1.75;89.53;99706.89;112906;1189;60211;-82
2021/10/11 01:36:30;;;;;;;170.50;114.40;;;;;;;1.75;89.58;99699.02;112903;1189;65006;-81
2021/10/11 01:39:02;;;;;;;175.30;115.40;;;;;;;1.77;89.80;99693.55;112888;1190;60252;-82
2021/10/11 01:41:28;;;;;;;191.70;117.00;;;;;;;1.81;90.00;99689.60;112851;1189;60194;-82
2021/10/11 01:43:55;;;;;;;196.10;119.60;;;;;;;1.83;89.97;99690.44;112963;1189;63529;-82
2021/10/11 01:46:22;;;;;;;181.30;115.40;;;;;;;1.83;89.95;99686.92;112892;1190;60669;-81
2021/10/11 01:48:48;;;;;;;175.00;115.50;;;;;;;1.82;89.86;99689.05;112909;1189;62581;-82
2021/10/11 01:51:15;;;;;;;174.60;115.90;;;;;;;1.80;89.97;99688.40;112878;1189;60214;-82
2021/10/11 01:53:42;;;;;;;171.10;113.10;;;;;;;1.79;90.03;99686.33;112808;1189;60228;-82
2021/10/11 01:56:08;;;;;;;166.20;112.00;;;;;;;1.79;90.15;99680.20;112939;1190;65250;-82
2021/10/11 01:58:35;;;;;;;156.50;108.90;;;;;;;1.83;90.30;99679.23;112923;1189;60156;-81
2021/10/11 02:01:02;;;;;;;170.40;115.00;;;;;;;1.86;90.27;99679.34;112962;1189;64063;-81
2021/10/11 02:03:29;;;;;;;177.00;118.50;;;;;;;1.86;90.25;99675.83;112920;1189;60262;-82
2021/10/11 02:05:56;;;;;;;195.40;115.00;;;;;;;1.87;90.32;99667.58;112880;1189;60134;-81
2021/10/11 02:08:22;;;;;;;196.50;117.20;;;;;;;1.85;90.39;99661.14;112946;1188;63915;-81
2021/10/11 02:10:49;;;;;;;173.30;114.10;;;;;;;1.85;90.49;99660.62;113006;1189;60201;-81
2021/10/11 02:13:15;;;;;;;177.70;120.70;;;;;;;1.85;90.43;99656.56;112935;1190;64046;-81
2021/10/11 02:15:43;;;;;;;210.40;138.80;;;;;;;1.89;90.64;99653.88;112932;1190;60281;-82
2021/10/11 02:18:09;;;;;;;186.10;121.30;;;;;;;1.95;90.79;99653.58;112970;1189;60210;-81
2021/10/11 02:20:37;;;;;;;162.70;108.90;;;;;;;1.96;90.59;99657.40;112950;1190;65308;-82
2021/10/11 02:23:04;;;;;;;158.40;105.30;;;;;;;1.94;90.53;99662.52;112790;1189;60990;-81
2021/10/11 02:25:32;;;;;;;161.20;105.00;;;;;;;1.93;90.52;99662.90;112928;1190;63601;-81
2021/10/11 02:27:59;;;;;;;166.40;105.60;;;;;;;1.92;90.59;99661.69;112882;1190;60207;-81
2021/10/11 02:30:26;;;;;;;179.30;109.30;;;;;;;1.90;90.69;99659.45;112966;1189;60609;-82
2021/10/11 02:32:53;;;;;;;196.10;110.80;;;;;;;1.87;90.83;99658.29;112936;1186;66149;-83
2021/10/11 02:35:20;;;;;;;205.30;106.90;;;;;;;1.87;90.87;99653.38;112936;1190;60690;-81
2021/10/11 02:37:48;;;;;;;164.80;101.20;;;;;;;1.87;90.84;99651.27;112942;1173;64051;-81
2021/10/11 02:40:15;;;;;;;170.90;111.10;;;;;;;1.84;90.96;99651.17;112881;1190;60159;-80
2021/10/11 02:42:42;;;;;;;157.70;103.40;;;;;;;1.85;91.13;99650.44;112924;1190;60220;-81
2021/10/11 02:45:09;;;;;;;150.50;100.50;;;;;;;1.86;91.12;99654.63;112917;1190;65907;-82
2021/10/11 02:47:35;;;;;;;158.30;104.60;;;;;;;1.87;91.13;99652.52;112803;1190;61093;-81
2021/10/11 02:50:05;;;;;;;151.20;102.50;;;;;;;1.89;91.18;99654.58;112922;1189;63647;-81
2021/10/11 02:52:33;;;;;;;153.80;101.00;;;;;;;1.89;91.23;99651.58;113012;1189;60150;-82
2021/10/11 02:55:01;;;;;;;149.30;97.40;;;;;;;1.92;91.35;99652.92;112932;1189;60219;-81
2021/10/11 02:57:27;;;;;;;147.60;99.80;;;;;;;1.92;91.25;99653.46;112914;1189;65292;-82
2021/10/11 02:59:54;;;;;;;146.80;101.40;;;;;;;1.95;91.45;99652.67;112898;1189;60274;-82
2021/10/11 03:02:21;;;;;;;159.00;104.00;;;;;;;2.02;91.53;99647.64;112922;1190;62668;-81
2021/10/11 03:04:49;;;;;;;155.10;103.80;;;;;;;2.02;91.19;99650.62;112933;1189;60699;-81
2021/10/11 03:07:18;;;;;;;166.10;103.70;;;;;;;1.94;90.98;99649.40;112897;1189;60245;-83
2021/10/11 03:09:44;;;;;;;172.40;106.30;;;;;;;1.83;90.91;99645.44;112925;1189;65043;-82
2021/10/11 03:12:12;;;;;;;163.30;105.90;;;;;;;1.76;91.18;99646.09;112874;1189;60678;-81
2021/10/11 03:14:39;;;;;;;176.80;110.00;;;;;;;1.70;91.22;99645.67;112907;1190;64984;-81
2021/10/11 03:17:05;;;;;;;169.90;113.30;;;;;;;1.66;91.49;99644.73;112882;1190;60239;-82
2021/10/11 03:19:33;;;;;;;170.50;115.30;;;;;;;1.61;91.55;99641.66;112861;1190;60252;-82
2021/10/11 03:22:00;;;;;;;170.30;114.40;;;;;;;1.54;91.58;99639.34;112873;1189;63849;-82
2021/10/11 03:24:27;;;;;;;160.60;110.80;;;;;;;1.50;91.74;99637.15;112877;1190;68621;-83
2021/10/11 03:26:54;;;;;;;167.50;111.30;;;;;;;1.52;91.78;99638.86;113036;1174;65002;-81
2021/10/11 03:29:21;;;;;;;157.40;106.30;;;;;;;1.53;92.00;99641.45;112737;1189;60178;-81
2021/10/11 03:31:48;;;;;;;158.20;107.00;;;;;;;1.53;91.82;99639.52;112887;1189;60223;-82
2021/10/11 03:34:14;;;;;;;166.40;109.60;;;;;;;1.51;91.87;99633.45;112844;1182;65197;-84
2021/10/11 03:36:41;;;;;;;166.20;109.80;;;;;;;1.52;91.94;99631.85;112927;1190;60226;-81
2021/10/11 03:39:09;;;;;;;184.10;113.40;;;;;;;1.55;92.04;99626.21;112951;1189;62715;-81
2021/10/11 03:41:35;;;;;;;171.60;108.60;;;;;;;1.56;92.00;99625.14;113041;1189;60329;-82
2021/10/11 03:44:05;;;;;;;159.20;106.60;;;;;;;1.56;91.97;99627.75;112984;1189;60249;-82
2021/10/11 03:46:33;;;;;;;153.40;104.90;;;;;;;1.55;92.01;99623.21;113275;1189;65230;-81
2021/10/11 03:49:02;;;;;;;155.10;105.60;;;;;;;1.51;91.88;99620.49;112882;1189;60248;-84
2021/10/11 03:51:29;;;;;;;148.00;103.50;;;;;;;1.45;91.90;99619.55;113596;1189;62650;-82
2021/10/11 03:53:56;;;;;;;144.80;102.30;;;;;;;1.43;91.96;99620.48;113011;1189;60274;-82
2021/10/11 03:56:23;;;;;;;149.20;100.60;;;;;;;1.43;91.95;99620.98;112879;1189;60239;-84
2021/10/11 03:58:50;;;;;;;146.70;99.40;;;;;;;1.43;91.92;99613.65;112893;1189;65837;-83
2021/10/11 04:01:16;;;;;;;153.50;106.90;;;;;;;1.42;91.83;99610.18;112935;1190;60236;-82
2021/10/11 04:03:43;;;;;;;174.90;110.70;;;;;;;1.37;91.86;99610.61;112942;1189;64947;-82
2021/10/11 04:06:11;;;;;;;178.40;109.10;;;;;;;1.39;92.11;99614.61;112924;1188;60185;-81
2021/10/11 04:08:40;;;;;;;194.20;112.30;;;;;;;1.41;92.14;99615.79;112938;1189;60271;-82
2021/10/11 04:11:11;;;;;;;168.20;111.20;;;;;;;1.41;92.09;99616.66;112906;1189;66165;-82
2021/10/11 04:13:38;;;;;;;172.70;113.20;;;;;;;1.39;92.01;99614.24;112931;1189;60092;-82
2021/10/11 04:16:06;;;;;;;148.80;101.60;;;;;;;1.39;92.27;99609.00;112876;1189;63989;-82
2021/10/11 04:18:34;;;;;;;141.20;98.00;;;;;;;1.42;92.33;99611.23;112835;1190;60178;-82
2021/10/11 04:21:01;;;;;;;144.00;99.10;;;;;;;1.45;92.46;99609.23;112915;1189;60193;-82
2021/10/11 04:23:29;;;;;;;139.00;96.60;;;;;;;1.48;92.45;99605.48;112967;1190;65221;-83
2021/10/11 04:25:56;;;;;;;143.80;98.20;;;;;;;1.53;92.47;99607.50;112867;1190;60165;-83
2021/10/11 04:28:23;;;;;;;150.90;100.30;;;;;;;1.57;92.57;99605.48;112918;1189;64835;-82
2021/10/11 04:30:51;;;;;;;165.10;106.20;;;;;;;1.58;92.42;99603.88;112986;1189;60188;-82
2021/10/11 04:33:18;;;;;;;173.00;107.90;;;;;;;1.59;92.40;99602.48;112950;1189;61746;-82
2021/10/11 04:35:48;;;;;;;169.00;106.70;;;;;;;1.59;92.30;99600.55;112872;1190;65200;-82
2021/10/11 04:38:14;;;;;;;156.30;106.00;;;;;;;1.55;92.25;99595.36;112910;1190;60297;-81
2021/10/11 04:40:41;;;;;;;146.80;103.30;;;;;;;1.51;92.28;99589.86;112824;1189;63712;-81
2021/10/11 04:43:08;;;;;;;153.50;102.90;;;;;;;1.45;92.20;99589.63;112940;1188;60207;-81
2021/10/11 04:45:35;;;;;;;136.30;94.90;;;;;;;1.39;92.20;99591.83;112954;1189;60239;-81
2021/10/11 04:48:05;;;;;;;133.30;94.90;;;;;;;1.35;92.36;99588.95;112924;1189;63880;-81
2021/10/11 04:50:33;;;;;;;134.10;93.50;;;;;;;1.32;92.36;99586.72;113220;1188;60212;-81
2021/10/11 04:53:01;;;;;;;134.70;94.00;;;;;;;1.26;92.30;99589.30;112926;1174;65218;-81
2021/10/11 04:55:28;;;;;;;141.50;97.80;;;;;;;1.22;92.38;99592.36;112866;1189;60268;-81
2021/10/11 04:57:56;;;;;;;160.70;101.70;;;;;;;1.19;92.54;99597.65;112902;1189;60156;-81
2021/10/11 05:00:23;;;;;;;163.60;103.30;;;;;;;1.22;92.53;99600.05;112908;1190;65175;-81
2021/10/11 05:02:50;;;;;;;172.50;102.50;;;;;;;1.22;92.48;99601.45;112902;1174;60699;-81
2021/10/11 05:05:16;;;;;;;166.30;109.50;;;;;;;1.22;92.43;99602.33;112899;1189;62930;-81
2021/10/11 05:07:43;;;;;;;169.00;112.80;;;;;;;1.20;92.39;99598.88;112899;1190;60246;-81
2021/10/11 05:10:09;;;;;;;164.80;108.60;;;;;;;1.16;92.31;99598.77;112889;1189;60156;-81
2021/10/11 05:12:36;;;;;;;156.40;104.30;;;;;;;1.13;92.45;99592.17;112881;1190;63724;-80
2021/10/11 05:15:04;;;;;;;152.80;106.30;;;;;;;1.12;92.56;99592.20;112917;1189;60232;-83
2021/10/11 05:17:30;;;;;;;141.70;103.30;;;;;;;1.09;92.60;99589.09;112928;1189;63748;-82
2021/10/11 05:19:57;;;;;;;143.00;99.60;;;;;;;1.11;92.74;99589.41;112912;1189;60239;-81
2021/10/11 05:22:24;;;;;;;150.10;105.70;;;;;;;1.16;92.88;99591.92;112883;1190;60144;-81
2021/10/11 05:24:51;;;;;;;160.50;110.40;;;;;;;1.20;92.74;99594.48;112946;1189;66205;-80
2021/10/11 05:27:19;;;;;;;172.30;112.00;;;;;;;1.20;92.65;99593.79;112943;1189;60325;-81
2021/10/11 05:29:46;;;;;;;170.70;111.60;;;;;;;1.21;92.74;99592.73;112846;1189;62908;-81
2021/10/11 05:32:12;;;;;;;163.70;116.30;;;;;;;1.25;92.95;99594.75;112900;1189;60780;-81
2021/10/11 05:34:39;;;;;;;162.80;114.00;;;;;;;1.34;93.03;99598.96;112873;1188;60242;-81
2021/10/11 05:37:06;;;;;;;152.80;115.90;;;;;;;1.37;92.77;99602.91;112913;1189;66245;-81
2021/10/11 05:39:32;;;;;;;147.70;110.00;;;;;;;1.40;92.73;99600.58;112876;1190;67868;-81
2021/10/11 05:41:59;;;;;;;122.40;89.60;;;;;;;1.46;92.77;99597.82;112857;1189;62623;-82
2021/10/11 05:44:26;;;;;;;126.10;98.60;;;;;;;1.54;92.62;99588.38;112917;1189;60149;-81
2021/10/11 05:46:52;;;;;;;144.10;100.80;;;;;;;1.62;92.68;99580.16;112877;1189;60130;-82
2021/10/11 05:49:19;;;;;;;146.40;105.40;;;;;;;1.70;92.70;99580.88;112926;1190;74550;-81
2021/10/11 05:51:46;;;;;;;152.10;109.30;;;;;;;1.75;92.63;99579.19;112915;1189;60236;-81
2021/10/11 05:54:12;;;;;;;144.40;103.40;;;;;;;1.81;92.44;99581.34;112897;1189;62762;-81
2021/10/11 05:56:39;;;;;;;137.40;96.20;;;;;;;1.86;92.30;99581.56;112904;1189;60146;-82
2021/10/11 05:59:05;;;;;;;123.40;90.60;;;;;;;1.90;92.09;99584.83;112941;1189;60114;-82
2021/10/11 06:01:32;;;;;;;124.20;86.80;;;;;;;2.00;92.19;99588.09;112939;1189;65109;-82
2021/10/11 06:03:59;;;;;;;120.20;85.00;;;;;;;2.13;92.02;99596.02;112902;1190;60094;-82
2021/10/11 06:06:26;;;;;;;127.90;90.20;;;;;;;2.25;92.07;99599.95;112921;1189;64013;-81
2021/10/11 06:08:53;;;;;;;121.60;90.90;;;;;;;2.39;91.97;99599.98;112985;1189;60255;-89
2021/10/11 06:11:19;;;;;;;124.80;91.10;;;;;;;2.57;91.99;99601.14;112979;1189;60165;-89
2021/10/11 06:13:47;;;;;;;135.90;96.10;;;;;;;2.70;91.70;99603.78;113210;1190;63900;-89
2021/10/11 06:16:14;;;;;;;132.60;92.40;;;;;;;2.77;91.52;99604.31;113157;1189;60156;-88
2021/10/11 06:18:42;;;;;;;125.10;91.90;;;;;;;2.82;91.28;99604.35;113303;1189;64029;-90
2021/10/11 06:21:09;;;;;;;120.50;89.60;;;;;;;2.88;91.16;99604.39;113275;1189;60133;-90
2021/10/11 06:23:35;;;;;;;113.00;80.20;;;;;;;2.94;91.05;99602.46;114017;1189;60123;-88
2021/10/11 06:26:03;;;;;;;114.90;85.00;;;;;;;2.97;90.87;99602.56;116838;1189;63842;-88
2021/10/11 06:28:29;;;;;;;122.60;88.00;;;;;;;3.06;91.02;99599.01;114244;1180;60197;-90
2021/10/11 06:30:57;;;;;;;127.80;91.40;;;;;;;3.21;91.05;99600.36;116548;1189;64011;-90
2021/10/11 06:33:25;;;;;;;133.20;95.30;;;;;;;3.43;91.18;99600.95;116331;1189;58847;-91
2021/10/11 06:35:53;;;;;;;133.70;96.10;;;;;;;3.63;90.88;99598.80;113275;1174;60306;-90
2021/10/11 06:38:20;;;;;;;128.40;92.10;;;;;;;3.74;90.67;99596.56;112946;1190;63933;-90
2021/10/11 06:40:48;;;;;;;123.80;89.60;;;;;;;3.83;90.57;99595.78;113065;1189;60194;-90
2021/10/11 06:43:15;;;;;;;112.70;83.90;;;;;;;3.91;90.57;99591.30;113040;1189;63988;-89
2021/10/11 06:45:42;;;;;;;99.00;73.80;;;;;;;4.03;90.36;99587.27;112992;1189;60210;-90
2021/10/11 06:48:09;;;;;;;113.70;80.70;;;;;;;4.15;90.27;99581.80;113310;1189;60458;-93
2021/10/11 06:50:36;;;;;;;123.10;90.60;;;;;;;4.26;90.14;99580.39;112790;1190;65290;-92
2021/10/11 06:53:03;;;;;;;118.00;86.30;;;;;;;4.42;90.06;99577.38;113215;1189;60807;-91
2021/10/11 06:55:31;;;;;;;110.90;84.50;;;;;;;4.59;89.89;99572.27;112924;1190;63093;-93
2021/10/11 06:57:58;;;;;;;115.50;84.90;;;;;;;4.67;89.74;99570.43;113086;1190;60325;-92
2021/10/11 07:00:24;;;;;;;117.10;88.90;;;;;;;4.72;89.63;99569.39;113006;1190;60345;-91
2021/10/11 07:02:51;;;;;;;105.80;82.30;;;;;;;4.73;89.62;99567.23;112918;1190;63855;-91
2021/10/11 07:05:18;;;;;;;100.10;78.70;;;;;;;4.75;89.78;99562.95;113101;1189;60332;-92
2021/10/11 07:07:46;;;;;;;101.80;82.30;;;;;;;4.84;89.94;99561.04;113130;1190;63704;-92
2021/10/11 07:10:13;;;;;;;112.70;86.70;;;;;;;4.97;90.00;99563.06;113128;1190;60230;-90
2021/10/11 07:12:41;;;;;;;115.90;86.10;;;;;;;5.08;89.96;99564.09;112923;1174;60268;-92
2021/10/11 07:15:08;;;;;;;110.20;84.90;;;;;;;5.20;89.83;99559.06;113149;1190;65624;-91
2021/10/11 07:17:34;;;;;;;108.70;87.30;;;;;;;5.24;89.45;99556.84;113166;1190;60335;-91
2021/10/11 07:20:02;;;;;;;111.30;83.20;;;;;;;5.25;89.44;99551.86;113061;1190;64039;-92
2021/10/11 07:22:28;;;;;;;95.60;71.90;;;;;;;5.24;89.30;99553.81;113189;1190;60117;-91
2021/10/11 07:24:55;;;;;;;92.10;70.80;;;;;;;5.22;89.32;99553.73;113212;1190;60242;-90
2021/10/11 07:27:22;;;;;;;90.30;69.80;;;;;;;5.24;89.32;99557.02;113244;1189;63839;-91
2021/10/11 07:29:49;;;;;;;86.80;66.20;;;;;;;5.30;89.57;99559.27;113649;1189;60111;-90
2021/10/11 07:32:16;;;;;;;83.30;64.10;;;;;;;5.41;89.77;99556.21;114199;1189;64183;-91
2021/10/11 07:34:43;;;;;;;78.90;63.70;;;;;;;5.60;90.08;99555.81;112971;1190;60156;-93
2021/10/11 07:37:10;;;;;;;79.10;64.30;;;;;;;5.78;90.19;99556.92;113057;1189;60242;-90
2021/10/11 07:39:37;;;;;;;84.20;64.50;;;;;;;5.91;89.92;99554.14;112770;1190;65359;-91
2021/10/11 07:42:04;;;;;;;82.60;64.10;;;;;;;6.02;89.70;99557.27;112936;1189;60212;-92
2021/10/11 07:44:31;;;;;;;83.20;64.80;;;;;;;6.11;89.69;99558.14;113059;1190;63997;-92
2021/10/11 07:46:58;;;;;;;84.00;63.30;;;;;;;6.20;89.74;99553.38;113071;1190;60367;-91
2021/10/11 07:49:25;;;;;;;78.40;62.00;;;;;;;6.29;89.52;99553.19;113065;1189;60162;-92
2021/10/11 07:51:51;;;;;;;76.80;59.10;;;;;;;6.38;89.40;99545.75;112713;1190;63964;-92
2021/10/11 07:54:19;;;;;;;79.50;61.20;;;;;;;6.51;89.26;99543.65;112979;1190;60270;-92
2021/10/11 07:56:48;;;;;;;73.20;58.70;;;;;;;6.61;89.28;99539.34;113059;1189;63673;-92
2021/10/11 07:59:15;;;;;;;79.20;62.00;;;;;;;6.68;88.86;99534.83;112989;1190;60159;-90
2021/10/11 08:01:42;;;;;;;85.10;64.80;;;;;;;6.74;88.97;99529.27;113251;1189;60309;-92
2021/10/11 08:04:09;;;;;;;84.50;62.90;;;;;;;6.85;88.93;99528.62;112998;1190;63819;-91
2021/10/11 08:06:36;;;;;;;81.00;61.80;;;;;;;6.94;88.80;99523.27;112951;1190;60281;-90
2021/10/11 08:09:04;;;;;;;80.80;60.30;;;;;;;7.07;88.87;99521.09;113008;1190;63991;-91
2021/10/11 08:11:31;;;;;;;86.40;64.90;;;;;;;7.19;88.55;99521.11;112923;1190;60169;-91
2021/10/11 08:13:59;;;;;;;87.90;66.50;;;;;;;7.30;88.32;99521.30;113106;1181;60233;-90
2021/10/11 08:16:26;;;;;;;85.90;64.10;;;;;;;7.42;88.29;99523.59;113075;1174;63857;-85
2021/10/11 08:18:53;;;;;;;83.50;65.70;;;;;;;7.55;88.10;99524.80;113146;1191;60727;-86
2021/10/11 08:21:20;;;;;;;86.10;61.80;;;;;;;7.68;88.24;99523.46;112875;1190;64833;-87
2021/10/11 08:23:51;;;;;;;79.70;59.50;;;;;;;7.83;87.63;99521.17;113025;1189;60229;-87
2021/10/11 08:26:18;;;;;;;64.60;49.20;;;;;;;7.94;87.15;99524.93;112953;1190;60330;-86
2021/10/11 08:28:45;;;;;;;63.70;46.50;;;;;;;8.02;86.11;99524.90;112967;1189;63911;-83
2021/10/11 08:31:12;;;;;;;70.40;51.50;;;;;;;8.08;85.89;99522.45;113028;1190;60207;-87
2021/10/11 08:33:40;;;;;;;75.30;53.20;;;;;;;8.21;86.08;99519.89;113014;1190;62723;-87
2021/10/11 08:36:06;;;;;;;67.30;47.20;;;;;;;8.30;84.89;99513.77;112948;1190;60220;-88
2021/10/11 08:38:33;;;;;;;65.80;46.20;;;;;;;8.29;84.17;99508.71;112959;1190;60506;-85
2021/10/11 08:41:00;;;;;;;68.80;47.20;;;;;;;8.26;83.70;99506.00;112918;1188;66475;-86
2021/10/11 08:43:27;;;;;;;76.70;49.60;;;;;;;8.23;83.99;99501.55;113001;1189;60186;-85
2021/10/11 08:45:53;;;;;;;68.50;47.60;;;;;;;8.25;84.52;99496.67;113058;1189;63969;-84
2021/10/11 08:48:20;;;;;;;70.00;50.40;;;;;;;8.27;83.91;99499.95;112886;1189;60137;-81
2021/10/11 08:50:47;;;;;;;69.10;50.30;;;;;;;8.30;83.83;99501.20;112940;1189;60117;-83
2021/10/11 08:53:14;;;;;;;72.80;50.60;;;;;;;8.41;83.95;99499.80;113040;1189;65096;-89
2021/10/11 08:55:42;;;;;;;65.60;48.90;;;;;;;8.60;83.92;99495.34;113016;1189;60197;-83
2021/10/11 08:58:08;;;;;;;65.50;48.60;;;;;;;8.81;83.46;99494.25;112855;1190;65266;-83
2021/10/11 09:00:37;;;;;;;71.60;54.10;;;;;;;9.01;83.11;99486.81;112947;1190;60251;-83
2021/10/11 09:03:06;;;;;;;72.40;51.50;;;;;;;9.21;82.99;99488.58;112998;1189;60185;-84
2021/10/11 09:05:41;;;;;;;64.60;48.00;;;;;;;9.42;82.58;99489.95;113791;1188;66049;-85
2021/10/11 09:08:17;;;;;;;60.70;44.30;;;;;;;9.62;81.85;99491.52;114662;1189;60199;-84
2021/10/11 09:10:56;;;;;;;61.60;46.00;;;;;;;9.80;81.28;99488.55;113008;1190;65154;-83
2021/10/11 09:13:31;;;;;;;58.70;43.40;;;;;;;9.97;80.99;99488.17;114714;1188;60121;-88
2021/10/11 09:16:12;;;;;;;50.80;37.30;;;;;;;10.16;80.21;99489.59;114299;1190;60236;-88
2021/10/11 09:18:42;;;;;;;55.50;39.00;;;;;;;10.31;79.30;99488.73;113188;1190;65253;-89
2021/10/11 09:21:09;;;;;;;56.60;40.30;;;;;;;10.45;78.92;99487.02;112910;1190;60230;-89
2021/10/11 09:23:36;;;;;;;50.90;38.50;;;;;;;10.58;78.46;99484.65;112862;1190;62589;-89
2021/10/11 09:26:15;;;;;;;49.20;37.20;;;;;;;10.69;77.99;99483.45;112940;1174;60217;-89
2021/10/11 09:28:53;;;;;;;55.90;39.90;;;;;;;10.87;77.74;99477.61;112980;1189;60307;-90
2021/10/11 09:31:34;;;;;;;47.00;36.50;;;;;;;11.03;76.42;99475.23;112962;1190;65398;-89
2021/10/11 09:34:01;;;;;;;47.00;36.20;;;;;;;11.02;75.64;99478.84;113010;1190;60407;-89
2021/10/11 09:37:06;;;;;;;45.70;36.60;;;;;;;11.08;75.95;99475.42;113150;1189;62617;-89
2021/10/11 09:39:36;;;;;;;45.00;33.90;;;;;;;11.19;74.28;99479.18;112925;1188;60144;-89
2021/10/11 09:42:05;;;;;;;45.80;38.10;;;;;;;11.11;73.73;99477.73;112993;1190;60296;-89
2021/10/11 09:44:33;;;;;;;45.40;35.50;;;;;;;11.11;73.72;99474.34;112867;1189;65274;-89
2021/10/11 09:47:08;;;;;;;49.30;38.30;;;;;;;11.18;73.77;99474.63;112963;1189;60175;-89
2021/10/11 09:49:36;;;;;;;43.00;34.30;;;;;;;11.28;73.81;99472.95;112969;1190;64975;-89
2021/10/11 09:52:03;;;;;;;44.20;34.30;;;;;;;11.37;73.35;99475.39;113008;1190;60248;-89
2021/10/11 09:54:30;;;;;;;48.10;35.10;;;;;;;11.44;72.72;99474.98;113019;1189;60213;-88
2021/10/11 09:56:57;;;;;;;44.50;35.90;;;;;;;11.50;72.70;99474.78;113005;1190;63814;-89
2021/10/11 09:59:26;;;;;;;52.00;37.90;;;;;;;11.59;72.69;99469.58;112921;1190;60268;-89
2021/10/11 10:01:53;;;;;;;44.90;35.50;;;;;;;11.70;72.56;99465.70;112808;1190;62666;-90
2021/10/11 10:04:27;;;;;;;47.30;34.50;;;;;;;11.77;72.21;99460.04;112775;1190;60184;-89
2021/10/11 10:06:56;;;;;;;44.80;34.40;;;;;;;11.80;71.64;99459.11;113126;1189;60094;-89
2021/10/11 10:09:26;;;;;;;52.10;36.20;;;;;;;11.82;71.67;99460.30;113073;1190;63867;-90
2021/10/11 10:11:53;;;;;;;45.30;34.70;;;;;;;11.85;71.22;99454.40;112994;1190;60184;-90
2021/10/11 10:14:24;;;;;;;46.10;35.20;;;;;;;11.80;70.93;99453.65;113033;1190;63984;-90
2021/10/11 10:16:54;;;;;;;43.70;35.60;;;;;;;11.78;71.12;99450.56;112960;1190;60237;-89
2021/10/11 10:19:39;;;;;;;50.00;35.70;;;;;;;11.79;71.09;99445.66;112935;1190;61912;-90
2021/10/11 10:22:09;;;;;;;41.60;33.40;;;;;;;11.81;70.82;99438.63;112795;1190;72620;-90
2021/10/11 10:24:36;;;;;;;41.70;33.20;;;;;;;11.80;70.54;99432.46;113046;1188;60674;-90
2021/10/11 10:27:09;;;;;;;47.70;33.50;;;;;;;11.75;70.24;99430.32;113114;1189;63795;-91
2021/10/11 10:29:47;;;;;;;42.30;31.20;;;;;;;11.70;70.28;99423.52;113366;1189;60150;-88
2021/10/11 10:32:19;;;;;;;47.60;33.10;;;;;;;11.64;70.13;99422.78;112848;1190;60294;-91
2021/10/11 10:34:58;;;;;;;47.90;33.60;;;;;;;11.54;69.58;99417.38;113122;1190;65210;-91
2021/10/11 10:37:37;;;;;;;44.30;28.90;;;;;;;11.46;69.38;99411.16;113662;1190;60155;-91
2021/10/11 10:40:12;;;;;;;37.60;29.00;;;;;;;11.34;68.57;99407.27;112923;1189;62644;-89
2021/10/11 10:42:38;;;;;;;41.50;29.20;;;;;;;11.27;68.81;99402.24;112826;1190;60242;-90
2021/10/11 10:45:16;;;;;;;43.90;31.00;;;;;;;11.26;69.07;99399.83;112927;1189;60202;-90
2021/10/11 10:47:43;;;;;;;38.70;29.20;;;;;;;11.27;68.86;99401.17;112827;1190;64879;-89
2021/10/11 10:50:17;;;;;;;42.30;30.80;;;;;;;11.28;68.94;99404.64;112859;1190;60297;-91
2021/10/11 10:52:56;;;;;;;44.00;31.90;;;;;;;11.27;68.14;99400.30;112988;1190;64029;-89
2021/10/11 10:55:23;;;;;;;42.20;28.60;;;;;;;11.27;68.23;99397.23;112923;1189;60230;-90
2021/10/11 10:58:10;;;;;;;37.10;25.30;;;;;;;11.34;68.02;99393.77;112873;1190;60165;-90
2021/10/11 11:00:40;;;;;;;33.30;23.00;;;;;;;11.42;66.82;99391.46;113072;1190;63907;-90
2021/10/11 11:03:15;;;;;;;39.90;22.80;;;;;;;11.49;66.49;99384.25;113157;1189;60226;-89
2021/10/11 11:05:42;;;;;;;29.70;20.90;;;;;;;11.60;65.19;99378.56;112941;1190;63863;-90
2021/10/11 11:08:10;;;;;;;30.60;21.70;;;;;;;11.71;65.09;99373.45;113003;1190;60239;-90
2021/10/11 11:10:39;;;;;;;30.50;21.50;;;;;;;11.80;63.71;99370.65;113127;1189;60156;-91